Time;durP1;ratioP1;P1;durP2;ratioP2;P2;SDS_P1;SDS_P2;PMS_P1;PMS_P2;Temp;Humidity;BMP_temperature;BMP_pressure;BME280_temperature;BME280_humidity;BME280_pressure;Samples;Min_cycle;Max_cycle;Signal;HPM_P1;HPM_P2
2023/07/03 00:00:11;;;;;;;;;;;17.00;86.50;;;;;;5061927;28;19958;-83
2023/07/03 00:02:36;;;;;;;;;;;17.10;86.70;;;;;;5052674;28;20355;-86
2023/07/03 00:05:03;;;;;;;;;;;17.00;87.40;;;;;;5062434;28;19916;-85
2023/07/03 00:07:28;;;;;;;;;;;17.00;87.10;;;;;;5062217;28;20007;-83
2023/07/03 00:09:54;;;;;;;;;;;17.00;87.40;;;;;;5066095;28;19913;-86
2023/07/03 00:12:20;;;;;;;;;;;16.90;88.10;;;;;;5061903;28;19995;-84
2023/07/03 00:14:45;;;;;;;;;;;16.90;88.10;;;;;;5065297;28;19948;-82
2023/07/03 00:17:11;;;;;;;;;;;17.00;87.80;;;;;;5062055;28;19920;-83
2023/07/03 00:19:36;;;;;;;;;;;16.90;88.20;;;;;;5062324;28;19916;-83
2023/07/03 00:22:02;;;;;;;;;;;16.70;88.90;;;;;;5062692;28;20011;-84
2023/07/03 00:24:29;;;;;;;;;;;16.70;89.50;;;;;;5062801;28;19947;-84
2023/07/03 00:26:55;;;;;;;;;;;16.60;90.00;;;;;;5062154;28;20364;-84
2023/07/03 00:29:21;;;;;;;;;;;16.60;90.10;;;;;;5062436;28;20419;-81
2023/07/03 00:31:46;;;;;;;;;;;16.50;90.20;;;;;;5061876;28;19912;-82
2023/07/03 00:34:12;;;;;;;;;;;16.50;90.50;;;;;;5062103;28;19923;-84
2023/07/03 00:36:37;;;;;;;;;;;16.40;90.80;;;;;;5062031;28;19986;-83
2023/07/03 00:39:04;;;;;;;;;;;16.30;91.10;;;;;;5061898;28;20356;-82
2023/07/03 00:41:31;;;;;;;;;;;16.30;91.30;;;;;;5062834;28;19913;-84
2023/07/03 00:43:56;;;;;;;;;;;16.20;91.50;;;;;;5043582;28;19912;-83
2023/07/03 00:46:22;;;;;;;;;;;16.20;91.50;;;;;;5061703;28;20041;-84
2023/07/03 00:48:48;;;;;;;;;;;16.20;91.40;;;;;;5053386;28;20003;-84
2023/07/03 00:51:14;;;;;;;;;;;16.30;91.50;;;;;;5062219;28;20108;-82
2023/07/03 00:53:39;;;;;;;;;;;16.20;91.90;;;;;;5062350;28;19917;-83
2023/07/03 00:56:05;;;;;;;;;;;16.20;92.10;;;;;;5063246;28;19924;-83
2023/07/03 00:58:31;;;;;;;;;;;16.20;92.00;;;;;;5060871;28;19982;-84
2023/07/03 01:01:00;;;;;;;;;;;16.30;92.00;;;;;;5062252;28;19920;-85
2023/07/03 01:03:32;;;;;;;;;;;16.30;92.00;;;;;;5062459;28;19913;-83
2023/07/03 01:05:59;;;;;;;;;;;16.40;92.20;;;;;;5044071;28;20715;-85
2023/07/03 01:08:24;;;;;;;;;;;16.60;92.00;;;;;;5062230;28;19913;-85
2023/07/03 01:10:50;;;;;;;;;;;16.60;91.60;;;;;;5061955;28;19919;-83
2023/07/03 01:13:18;;;;;;;;;;;16.50;92.10;;;;;;5065873;28;19916;-84
2023/07/03 01:15:44;;;;;;;;;;;16.50;92.00;;;;;;5065586;28;19917;-84
2023/07/03 01:18:10;;;;;;;;;;;16.70;91.80;;;;;;5065693;28;19917;-84
2023/07/03 01:20:42;;;;;;;;;;;16.70;91.60;;;;;;5065429;28;19923;-84
2023/07/03 01:23:12;;;;;;;;;;;16.50;91.70;;;;;;5065459;28;19916;-84
2023/07/03 01:25:40;;;;;;;;;;;16.40;91.90;;;;;;5046147;28;19955;-84
2023/07/03 01:28:07;;;;;;;;;;;16.40;91.80;;;;;;5065131;28;19964;-83
2023/07/03 01:30:33;;;;;;;;;;;16.30;91.90;;;;;;5063994;28;20027;-82
2023/07/03 01:32:59;;;;;;;;;;;16.30;92.10;;;;;;5064878;28;19972;-83
2023/07/03 01:35:25;;;;;;;;;;;16.20;92.20;;;;;;5065087;28;19987;-83
2023/07/03 01:37:52;;;;;;;;;;;16.20;92.40;;;;;;5047161;28;20021;-82
2023/07/03 01:40:20;;;;;;;;;;;16.30;92.00;;;;;;5047410;28;20435;-83
2023/07/03 01:42:45;;;;;;;;;;;16.20;92.00;;;;;;5065239;28;20339;-83
2023/07/03 01:45:11;;;;;;;;;;;16.10;92.30;;;;;;5064800;28;19918;-80
2023/07/03 01:47:37;;;;;;;;;;;16.10;92.40;;;;;;5064723;28;19960;-82
2023/07/03 01:50:07;;;;;;;;;;;16.20;92.40;;;;;;5065773;28;19920;-82
2023/07/03 01:52:40;;;;;;;;;;;16.20;92.40;;;;;;5065194;28;19969;-82
2023/07/03 01:55:32;;;;;;;;;;;16.30;92.30;;;;;;5065314;28;19921;-83
2023/07/03 01:58:10;;;;;;;;;;;16.30;92.30;;;;;;5022720;28;19966;-82
2023/07/03 02:00:40;;;;;;;;;;;16.30;92.40;;;;;;5065157;28;20385;-83
2023/07/03 02:03:10;;;;;;;;;;;16.30;92.30;;;;;;5055543;28;19913;-82
2023/07/03 02:05:38;;;;;;;;;;;16.20;92.30;;;;;;5061731;28;19923;-83
2023/07/03 02:08:05;;;;;;;;;;;16.20;92.40;;;;;;5064457;28;19986;-80
2023/07/03 02:10:31;;;;;;;;;;;16.20;92.50;;;;;;5064385;28;19916;-81
2023/07/03 02:12:57;;;;;;;;;;;16.10;92.60;;;;;;5075677;28;20478;-81
2023/07/03 02:15:22;;;;;;;;;;;16.10;92.60;;;;;;5045514;28;20023;-84
2023/07/03 02:17:52;;;;;;;;;;;16.00;92.80;;;;;;5071129;28;19971;-85
2023/07/03 02:20:17;;;;;;;;;;;15.80;93.00;;;;;;5045587;28;19920;-82
2023/07/03 02:22:43;;;;;;;;;;;15.70;93.40;;;;;;5068633;28;20493;-84
2023/07/03 02:25:09;;;;;;;;;;;15.70;93.50;;;;;;5063740;28;19986;-83
2023/07/03 02:27:35;;;;;;;;;;;15.70;93.40;;;;;;5041483;28;19920;-82
2023/07/03 02:30:00;;;;;;;;;;;15.70;93.20;;;;;;5063021;28;20311;-82
2023/07/03 02:32:36;;;;;;;;;;;15.60;93.40;;;;;;5060762;28;19923;-78
2023/07/03 02:35:02;;;;;;;;;;;15.60;93.60;;;;;;5062111;28;19947;-81
2023/07/03 02:37:27;;;;;;;;;;;15.50;93.90;;;;;;5063441;28;19923;-81
2023/07/03 02:39:53;;;;;;;;;;;15.50;93.70;;;;;;5061772;28;20942;-84
2023/07/03 02:42:18;;;;;;;;;;;15.50;93.90;;;;;;5063191;28;19916;-82
2023/07/03 02:44:44;;;;;;;;;;;15.30;94.20;;;;;;5059247;28;20273;-84
2023/07/03 02:47:09;;;;;;;;;;;15.40;94.00;;;;;;5064634;28;20029;-83
2023/07/03 02:49:35;;;;;;;;;;;15.40;94.10;;;;;;5063192;28;20011;-82
2023/07/03 02:52:00;;;;;;;;;;;15.40;94.10;;;;;;5046029;28;19912;-82
2023/07/03 02:54:26;;;;;;;;;;;15.40;94.30;;;;;;5064095;28;19917;-83
2023/07/03 02:56:52;;;;;;;;;;;15.40;94.20;;;;;;5065477;28;20673;-80
2023/07/03 02:59:17;;;;;;;;;;;15.30;94.40;;;;;;5063419;28;19912;-82
2023/07/03 03:01:43;;;;;;;;;;;15.30;94.30;;;;;;5063853;28;19912;-83
2023/07/03 03:04:08;;;;;;;;;;;15.40;94.30;;;;;;5063709;28;20441;-81
2023/07/03 03:06:35;;;;;;;;;;;15.30;94.30;;;;;;5079431;28;19912;-82
2023/07/03 03:09:01;;;;;;;;;;;15.30;94.40;;;;;;5063861;28;19912;-82
2023/07/03 03:11:26;;;;;;;;;;;15.30;94.50;;;;;;5063622;28;20280;-81
2023/07/03 03:13:52;;;;;;;;;;;15.30;94.40;;;;;;5064359;28;20499;-81
2023/07/03 03:16:17;;;;;;;;;;;15.30;94.40;;;;;;5063472;28;19991;-81
2023/07/03 03:18:43;;;;;;;;;;;15.20;94.60;;;;;;5045354;28;19996;-82
2023/07/03 03:21:09;;;;;;;;;;;15.20;94.60;;;;;;5064459;28;19948;-80
2023/07/03 03:23:34;;;;;;;;;;;15.20;94.80;;;;;;5063733;28;19958;-83
2023/07/03 03:26:00;;;;;;;;;;;15.10;95.00;;;;;;5063656;28;19912;-83
2023/07/03 03:28:25;;;;;;;;;;;15.10;95.20;;;;;;5063750;28;19912;-83
2023/07/03 03:30:52;;;;;;;;;;;15.10;95.00;;;;;;5063562;28;20038;-82
2023/07/03 03:33:17;;;;;;;;;;;15.10;95.10;;;;;;5045224;28;19917;-82
2023/07/03 03:35:44;;;;;;;;;;;15.10;95.10;;;;;;5062550;28;19927;-82
2023/07/03 03:38:10;;;;;;;;;;;15.00;95.10;;;;;;5063342;28;19960;-81
2023/07/03 03:40:35;;;;;;;;;;;15.00;95.30;;;;;;5063246;28;20362;-82
2023/07/03 03:43:01;;;;;;;;;;;15.00;95.30;;;;;;5063166;28;19912;-83
2023/07/03 03:45:26;;;;;;;;;;;15.00;95.40;;;;;;5063494;28;19913;-79
2023/07/03 03:47:52;;;;;;;;;;;15.10;95.20;;;;;;5059992;28;19916;-82
2023/07/03 03:50:18;;;;;;;;;;;15.00;95.10;;;;;;5053082;28;19917;-83
2023/07/03 03:52:44;;;;;;;;;;;15.00;95.50;;;;;;5062272;28;19912;-82
2023/07/03 03:55:09;;;;;;;;;;;14.90;95.60;;;;;;5051908;28;20026;-82
2023/07/03 03:57:35;;;;;;;;;;;14.90;95.60;;;;;;5061174;28;20342;-82
2023/07/03 04:00:00;;;;;;;;;;;14.90;95.60;;;;;;5052787;28;20311;-80
2023/07/03 04:02:26;;;;;;;;;;;15.00;95.60;;;;;;5052506;28;19920;-82
2023/07/03 04:04:52;;;;;;;;;;;14.90;95.70;;;;;;5062538;28;19920;-80
2023/07/03 04:07:17;;;;;;;;;;;14.90;95.80;;;;;;5053607;28;19916;-81
2023/07/03 04:09:43;;;;;;;;;;;14.80;96.00;;;;;;5062932;28;19920;-83
2023/07/03 04:12:08;;;;;;;;;;;14.80;96.00;;;;;;5054071;28;20050;-80
2023/07/03 04:14:34;;;;;;;;;;;14.80;96.00;;;;;;5062017;28;19974;-82
2023/07/03 04:17:00;;;;;;;;;;;14.80;96.00;;;;;;5054476;28;19928;-82
2023/07/03 04:19:27;;;;;;;;;;;14.80;96.00;;;;;;5043771;28;20000;-81
2023/07/03 04:21:53;;;;;;;;;;;14.80;95.90;;;;;;5061980;28;19919;-84
2023/07/03 04:24:19;;;;;;;;;;;14.80;96.00;;;;;;5062357;28;19912;-83
2023/07/03 04:26:44;;;;;;;;;;;14.90;95.90;;;;;;5062359;28;19970;-83
2023/07/03 04:29:10;;;;;;;;;;;15.10;95.60;;;;;;5062145;28;19943;-82
2023/07/03 04:31:36;;;;;;;;;;;15.30;95.30;;;;;;5062078;28;19931;-81
2023/07/03 04:34:01;;;;;;;;;;;15.50;95.00;;;;;;5064258;28;19924;-83
2023/07/03 04:36:27;;;;;;;;;;;15.60;94.90;;;;;;5043920;28;20009;-80
2023/07/03 04:38:57;;;;;;;;;;;15.70;95.00;;;;;;5062335;28;20007;-81
2023/07/03 04:41:27;;;;;;;;;;;15.80;95.10;;;;;;5061408;28;19917;-82
2023/07/03 04:43:56;;;;;;;;;;;15.80;94.90;;;;;;5062382;28;19989;-81
2023/07/03 04:46:25;;;;;;;;;;;15.90;95.00;;;;;;5043721;28;19919;-80
2023/07/03 04:48:52;;;;;;;;;;;15.80;95.10;;;;;;5052953;28;19917;-82
2023/07/03 04:51:17;;;;;;;;;;;15.80;95.20;;;;;;5049907;28;20007;-81
2023/07/03 04:53:43;;;;;;;;;;;15.80;95.30;;;;;;5062403;28;19924;-81
2023/07/03 04:56:09;;;;;;;;;;;15.90;95.20;;;;;;5044539;28;20027;-79
2023/07/03 04:58:35;;;;;;;;;;;15.90;95.10;;;;;;5042950;28;19909;-81
2023/07/03 05:01:00;;;;;;;;;;;15.90;95.10;;;;;;5060285;28;19994;-82
2023/07/03 05:03:26;;;;;;;;;;;16.00;95.20;;;;;;5058601;28;20008;-80
2023/07/03 05:05:51;;;;;;;;;;;16.10;95.20;;;;;;5056565;28;19912;-79
2023/07/03 05:08:17;;;;;;;;;;;16.10;95.10;;;;;;5053426;28;19959;-80
2023/07/03 05:10:42;;;;;;;;;;;16.20;95.10;;;;;;5061998;28;19920;-81
2023/07/03 05:13:08;;;;;;;;;;;16.20;95.00;;;;;;5060122;28;19920;-80
2023/07/03 05:15:34;;;;;;;;;;;16.20;95.00;;;;;;5058055;28;19956;-80
2023/07/03 05:17:59;;;;;;;;;;;16.30;94.90;;;;;;5059502;28;19920;-80
2023/07/03 05:20:29;;;;;;;;;;;16.30;94.60;;;;;;5061411;28;19994;-81
2023/07/03 05:22:55;;;;;;;;;;;16.30;94.70;;;;;;5060566;28;20302;-81
2023/07/03 05:25:21;;;;;;;;;;;16.30;95.00;;;;;;5058451;28;19917;-81
2023/07/03 05:27:46;;;;;;;;;;;16.30;94.70;;;;;;5053668;28;19923;-82
2023/07/03 05:30:12;;;;;;;;;;;16.20;94.90;;;;;;5060998;28;20451;-80
2023/07/03 05:32:38;;;;;;;;;;;16.30;94.80;;;;;;5057981;28;20575;-80
2023/07/03 05:35:05;;;;;;;;;;;16.40;94.70;;;;;;5055913;28;19920;-77
2023/07/03 05:37:31;;;;;;;;;;;16.50;94.60;;;;;;5060144;28;20013;-81
2023/07/03 05:39:56;;;;;;;;;;;16.50;94.80;;;;;;5061558;28;20039;-80
2023/07/03 05:42:22;;;;;;;;;;;16.50;94.60;;;;;;5061821;28;19917;-80
2023/07/03 05:44:47;;;;;;;;;;;16.50;94.90;;;;;;5058355;28;19928;-79
2023/07/03 05:47:14;;;;;;;;;;;16.60;94.90;;;;;;5060282;28;19927;-81
2023/07/03 05:49:39;;;;;;;;;;;16.60;94.50;;;;;;5059759;28;19949;-81
2023/07/03 05:52:05;;;;;;;;;;;16.60;94.60;;;;;;5060346;28;21061;-81
2023/07/03 05:54:31;;;;;;;;;;;16.60;94.60;;;;;;5054549;28;19966;-84
2023/07/03 05:56:57;;;;;;;;;;;16.70;94.50;;;;;;5083886;28;20321;-81
2023/07/03 05:59:23;;;;;;;;;;;16.80;94.50;;;;;;5045367;28;20684;-82
2023/07/03 06:01:49;;;;;;;;;;;16.80;94.20;;;;;;5066552;28;19912;-81
2023/07/03 06:04:15;;;;;;;;;;;16.80;94.20;;;;;;5054828;28;19964;-79
2023/07/03 06:06:41;;;;;;;;;;;16.80;94.50;;;;;;5064332;28;20353;-79
2023/07/03 06:09:07;;;;;;;;;;;16.90;94.50;;;;;;5065988;28;20445;-78
2023/07/03 06:11:32;;;;;;;;;;;17.00;94.10;;;;;;5051186;28;19932;-78
2023/07/03 06:13:58;;;;;;;;;;;17.10;93.80;;;;;;5048294;28;20054;-79
2023/07/03 06:16:27;;;;;;;;;;;17.00;94.00;;;;;;5066645;28;20010;-78
2023/07/03 06:18:52;;;;;;;;;;;17.10;93.90;;;;;;5062710;28;20118;-78
2023/07/03 06:21:18;;;;;;;;;;;17.10;94.20;;;;;;5053609;28;20351;-80
2023/07/03 06:23:44;;;;;;;;;;;17.20;93.90;;;;;;5054759;28;19916;-79
2023/07/03 06:26:10;;;;;;;;;;;17.30;93.80;;;;;;5050605;28;19917;-79
2023/07/03 06:28:36;;;;;;;;;;;17.40;93.10;;;;;;5048287;28;19972;-80
2023/07/03 06:31:02;;;;;;;;;;;17.40;93.60;;;;;;5057119;28;19925;-79
2023/07/03 06:33:28;;;;;;;;;;;17.50;93.70;;;;;;5059855;28;19917;-80
2023/07/03 06:35:54;;;;;;;;;;;17.60;93.00;;;;;;5065663;28;19920;-80
2023/07/03 06:38:20;;;;;;;;;;;17.80;92.90;;;;;;5063458;28;19999;-81
2023/07/03 06:40:54;;;;;;;;;;;17.80;92.80;;;;;;5054515;28;19913;-79
2023/07/03 06:43:20;;;;;;;;;;;17.90;92.80;;;;;;5048481;28;19913;-80
2023/07/03 06:45:45;;;;;;;;;;;17.90;92.40;;;;;;5065698;28;19912;-80
2023/07/03 06:48:11;;;;;;;;;;;17.90;92.40;;;;;;5053395;28;19912;-80
2023/07/03 06:50:36;;;;;;;;;;;17.90;92.20;;;;;;5051221;28;19954;-80
2023/07/03 06:53:02;;;;;;;;;;;17.90;92.60;;;;;;5056302;28;19959;-80
2023/07/03 06:55:28;;;;;;;;;;;17.80;92.70;;;;;;5061229;28;19974;-79
2023/07/03 06:57:53;;;;;;;;;;;17.90;93.10;;;;;;5045159;28;19948;-80
2023/07/03 07:00:19;;;;;;;;;;;17.90;92.70;;;;;;5060071;28;19916;-81
2023/07/03 07:02:44;;;;;;;;;;;18.10;92.40;;;;;;5056738;28;20335;-81
2023/07/03 07:05:10;;;;;;;;;;;18.00;92.60;;;;;;5045255;28;19912;-79
2023/07/03 07:07:35;;;;;;;;;;;18.00;92.30;;;;;;5052550;28;19927;-80
2023/07/03 07:10:01;;;;;;;;;;;18.00;92.80;;;;;;5051762;28;19982;-80
2023/07/03 07:12:26;;;;;;;;;;;18.10;92.70;;;;;;5053610;28;19921;-80
2023/07/03 07:14:52;;;;;;;;;;;18.20;92.30;;;;;;5054865;28;20653;-80
2023/07/03 07:17:18;;;;;;;;;;;18.30;92.70;;;;;;5059389;28;19916;-80
2023/07/03 07:19:43;;;;;;;;;;;18.30;92.20;;;;;;5066065;28;20010;-79
2023/07/03 07:22:09;;;;;;;;;;;18.30;92.30;;;;;;5072907;28;19917;-80
2023/07/03 07:24:34;;;;;;;;;;;18.30;92.20;;;;;;5061480;28;19916;-80
2023/07/03 07:27:02;;;;;;;;;;;18.30;92.10;;;;;;5059636;28;19915;-80
2023/07/03 07:29:28;;;;;;;;;;;18.40;92.20;;;;;;5062112;28;19918;-79
2023/07/03 07:31:55;;;;;;;;;;;18.40;91.90;;;;;;5059531;28;19924;-79
2023/07/03 07:34:20;;;;;;;;;;;18.40;91.80;;;;;;5055477;28;19916;-80
2023/07/03 07:36:46;;;;;;;;;;;18.20;91.80;;;;;;5056564;28;20402;-80
2023/07/03 07:39:11;;;;;;;;;;;18.30;92.00;;;;;;5042425;28;20363;-80
2023/07/03 07:41:37;;;;;;;;;;;18.50;91.80;;;;;;5074598;28;19991;-79
2023/07/03 07:44:03;;;;;;;;;;;18.50;91.90;;;;;;5061516;28;19951;-81
2023/07/03 07:46:30;;;;;;;;;;;18.60;91.90;;;;;;5053422;28;19916;-81
2023/07/03 07:48:56;;;;;;;;;;;18.20;91.90;;;;;;5058431;28;20694;-80
2023/07/03 07:51:22;;;;;;;;;;;18.20;92.20;;;;;;5055315;28;20406;-80
2023/07/03 07:53:48;;;;;;;;;;;18.40;91.80;;;;;;5069968;28;19921;-79
2023/07/03 07:56:13;;;;;;;;;;;18.40;91.80;;;;;;5061623;28;19917;-80
2023/07/03 07:58:39;;;;;;;;;;;18.50;91.50;;;;;;5050332;28;19916;-81
2023/07/03 08:01:05;;;;;;;;;;;18.70;92.10;;;;;;5043832;28;20006;-81
2023/07/03 08:03:31;;;;;;;;;;;18.80;91.10;;;;;;5062949;28;20259;-82
2023/07/03 08:05:58;;;;;;;;;;;19.00;91.00;;;;;;5062601;28;19913;-81
2023/07/03 08:08:23;;;;;;;;;;;19.20;90.70;;;;;;5053710;28;19921;-81
2023/07/03 08:10:55;;;;;;;;;;;19.30;90.40;;;;;;5065610;28;20425;-80
2023/07/03 08:13:21;;;;;;;;;;;19.50;90.30;;;;;;5059995;28;19921;-81
2023/07/03 08:15:47;;;;;;;;;;;19.40;90.70;;;;;;5057421;28;19978;-81
2023/07/03 08:18:15;;;;;;;;;;;19.60;90.60;;;;;;5062556;28;20480;-82
2023/07/03 08:20:40;;;;;;;;;;;20.10;89.70;;;;;;5062248;28;19995;-81
2023/07/03 08:23:06;;;;;;;;;;;20.50;88.10;;;;;;5063061;28;20462;-80
2023/07/03 08:25:31;;;;;;;;;;;20.50;87.10;;;;;;5057013;28;19916;-81
2023/07/03 08:27:57;;;;;;;;;;;20.10;87.70;;;;;;5053538;28;20451;-81
2023/07/03 08:30:23;;;;;;;;;;;20.10;89.10;;;;;;5043102;28;19935;-82
2023/07/03 08:32:48;;;;;;;;;;;20.20;87.90;;;;;;5056475;28;19916;-82
2023/07/03 08:35:16;;;;;;;;;;;20.30;86.90;;;;;;5061272;28;20378;-80
2023/07/03 08:37:41;;;;;;;;;;;20.60;85.70;;;;;;5056502;28;19917;-82
2023/07/03 08:40:08;;;;;;;;;;;21.20;83.80;;;;;;5047981;28;19916;-81
2023/07/03 08:42:48;;;;;;;;;;;22.00;80.90;;;;;;5049728;28;19928;-83
2023/07/03 08:45:16;;;;;;;;;;;22.50;79.90;;;;;;5055071;28;19924;-83
2023/07/03 08:47:41;;;;;;;;;;;23.00;79.10;;;;;;5062965;28;19975;-82
2023/07/03 08:50:08;;;;;;;;;;;23.70;76.30;;;;;;5055260;28;19924;-81
2023/07/03 08:52:37;;;;;;;;;;;23.80;75.60;;;;;;5061424;28;19916;-82
2023/07/03 08:55:05;;;;;;;;;;;24.00;75.50;;;;;;5060728;28;20481;-80
2023/07/03 08:57:31;;;;;;;;;;;24.30;75.20;;;;;;5060456;28;20022;-82
2023/07/03 08:59:57;;;;;;;;;;;24.70;73.60;;;;;;5060682;28;19912;-82
2023/07/03 09:02:32;;;;;;;;;;;25.10;72.60;;;;;;5062495;28;19917;-81
2023/07/03 09:05:01;;;;;;;;;;;25.50;72.60;;;;;;5062368;28;19919;-80
2023/07/03 09:07:42;;;;;;;;;;;26.10;69.20;;;;;;5062153;28;19912;-81
2023/07/03 09:10:30;;;;;;;;;;;26.40;68.20;;;;;;5062108;28;19919;-81
2023/07/03 09:12:55;;;;;;;;;;;27.40;66.80;;;;;;5057626;28;20084;-82
2023/07/03 09:15:27;;;;;;;;;;;27.60;66.00;;;;;;5056436;28;20430;-82
2023/07/03 09:17:53;;;;;;;;;;;27.10;65.70;;;;;;5061828;28;19912;-82
2023/07/03 09:20:19;;;;;;;;;;;26.10;66.40;;;;;;5062108;28;19924;-79
2023/07/03 09:22:45;;;;;;;;;;;24.70;70.50;;;;;;5062265;28;20250;-82
2023/07/03 09:25:16;;;;;;;;;;;24.80;72.10;;;;;;5062038;28;20703;-81
2023/07/03 09:27:43;;;;;;;;;;;26.20;69.10;;;;;;5054649;28;19923;-81
2023/07/03 09:30:11;;;;;;;;;;;28.40;62.20;;;;;;5055042;28;20375;-80
2023/07/03 09:32:37;;;;;;;;;;;29.40;59.40;;;;;;5057274;28;19913;-82
2023/07/03 09:35:02;;;;;;;;;;;29.00;57.20;;;;;;5065451;28;19928;-83
2023/07/03 09:37:28;;;;;;;;;;;29.40;56.60;;;;;;5063082;28;19923;-82
2023/07/03 09:39:54;;;;;;;;;;;30.50;56.90;;;;;;5062303;28;19920;-80
2023/07/03 09:42:20;;;;;;;;;;;30.60;54.40;;;;;;5054937;28;19978;-82
2023/07/03 09:44:46;;;;;;;;;;;32.70;54.20;;;;;;5065044;28;19916;-82
2023/07/03 09:47:24;;;;;;;;;;;33.10;51.90;;;;;;5060602;28;20364;-82
2023/07/03 09:49:49;;;;;;;;;;;28.80;57.10;;;;;;5055522;28;20011;-80
2023/07/03 09:52:15;;;;;;;;;;;27.30;59.80;;;;;;5060840;28;19946;-81
2023/07/03 09:54:42;;;;;;;;;;;27.70;60.00;;;;;;5059967;28;19917;-81
2023/07/03 09:57:18;;;;;;;;;;;26.80;60.10;;;;;;5054051;28;20423;-80
2023/07/03 09:59:44;;;;;;;;;;;30.50;57.40;;;;;;5061610;28;19916;-79
2023/07/03 10:02:10;;;;;;;;;;;30.30;54.40;;;;;;5057124;28;19920;-80
2023/07/03 10:04:44;;;;;;;;;;;31.60;51.20;;;;;;5064783;28;19924;-81
2023/07/03 10:07:12;;;;;;;;;;;32.00;49.90;;;;;;5057281;28;20666;-80
2023/07/03 10:09:39;;;;;;;;;;;32.60;48.40;;;;;;5058939;28;19916;-82
2023/07/03 10:12:09;;;;;;;;;;;34.10;50.10;;;;;;5063888;28;19913;-82
2023/07/03 10:14:54;;;;;;;;;;;33.50;47.10;;;;;;5059920;28;19917;-82
2023/07/03 10:17:25;;;;;;;;;;;35.30;46.00;;;;;;5055153;28;19970;-81
2023/07/03 10:19:56;;;;;;;;;;;34.40;47.00;;;;;;5057881;28;19913;-82
2023/07/03 10:22:24;;;;;;;;;;;31.90;48.10;;;;;;5054176;28;19935;-80
2023/07/03 10:24:49;;;;;;;;;;;31.80;51.20;;;;;;5054675;28;20035;-82
2023/07/03 10:27:19;;;;;;;;;;;32.50;50.60;;;;;;5046938;28;19921;-81
2023/07/03 10:29:49;;;;;;;;;;;32.20;48.10;;;;;;5042073;28;20718;-82
2023/07/03 10:32:17;;;;;;;;;;;31.70;46.20;;;;;;5065262;28;20012;-81
2023/07/03 10:34:47;;;;;;;;;;;31.20;43.80;;;;;;5055936;28;19920;-81
2023/07/03 10:37:13;;;;;;;;;;;31.40;44.10;;;;;;5070070;28;19916;-82
2023/07/03 10:39:42;;;;;;;;;;;33.00;44.10;;;;;;5056738;28;20375;-82
2023/07/03 10:42:19;;;;;;;;;;;33.50;46.10;;;;;;5078664;28;19963;-81
2023/07/03 10:44:45;;;;;;;;;;;34.30;44.20;;;;;;5053549;28;19917;-82
2023/07/03 10:47:11;;;;;;;;;;;33.70;40.20;;;;;;5056131;28;19917;-81
2023/07/03 10:49:37;;;;;;;;;;;32.90;43.40;;;;;;5055030;28;19974;-81
2023/07/03 10:52:06;;;;;;;;;;;31.00;44.00;;;;;;5069846;28;20351;-82
2023/07/03 10:54:46;;;;;;;;;;;29.80;50.20;;;;;;5062718;28;19920;-83
2023/07/03 10:57:17;;;;;;;;;;;29.10;48.50;;;;;;5062286;28;20007;-80
2023/07/03 10:59:47;;;;;;;;;;;28.90;51.70;;;;;;5042167;28;20546;-81
2023/07/03 11:02:34;;;;;;;;;;;27.70;58.10;;;;;;5063148;28;20326;-84
2023/07/03 11:05:00;;;;;;;;;;;27.30;58.70;;;;;;5053998;28;20431;-81
2023/07/03 11:07:37;;;;;;;;;;;27.50;57.30;;;;;;5058497;28;20461;-82
2023/07/03 11:10:08;;;;;;;;;;;27.50;57.00;;;;;;5062727;28;19923;-81
2023/07/03 11:13:06;;;;;;;;;;;27.10;55.50;;;;;;5056770;28;20437;-82
2023/07/03 11:15:41;;;;;;;;;;;27.60;59.70;;;;;;5043008;28;19967;-82
2023/07/03 11:18:13;;;;;;;;;;;27.30;60.40;;;;;;5062403;28;19916;-81
2023/07/03 11:20:46;;;;;;;;;;;27.20;60.70;;;;;;5059345;28;19919;-81
2023/07/03 11:23:30;;;;;;;;;;;26.40;60.70;;;;;;5062367;28;19913;-82
2023/07/03 11:26:14;;;;;;;;;;;26.00;58.80;;;;;;5057979;28;19944;-82
2023/07/03 11:28:43;;;;;;;;;;;26.00;62.60;;;;;;5059811;28;19921;-82
2023/07/03 11:31:09;;;;;;;;;;;25.90;63.30;;;;;;5043910;28;19963;-83
2023/07/03 11:33:35;;;;;;;;;;;25.80;64.70;;;;;;5060121;28;19920;-81
2023/07/03 11:36:01;;;;;;;;;;;25.80;60.30;;;;;;5061083;28;20483;-81
2023/07/03 11:38:27;;;;;;;;;;;26.50;62.00;;;;;;5077771;28;19919;-78
2023/07/03 11:40:53;;;;;;;;;;;26.40;61.30;;;;;;5063380;28;19928;-82
2023/07/03 11:43:33;;;;;;;;;;;26.90;62.10;;;;;;5062409;28;19923;-82
2023/07/03 11:45:58;;;;;;;;;;;27.10;59.50;;;;;;5063132;28;19919;-84
2023/07/03 11:48:27;;;;;;;;;;;27.20;59.20;;;;;;5055468;28;19917;-80
2023/07/03 11:51:03;;;;;;;;;;;26.90;57.00;;;;;;5062239;28;19920;-83
2023/07/03 11:53:32;;;;;;;;;;;27.00;58.90;;;;;;5054649;28;19960;-81
2023/07/03 11:55:57;;;;;;;;;;;27.30;59.50;;;;;;5061615;28;19998;-82
2023/07/03 11:58:29;;;;;;;;;;;27.30;59.80;;;;;;5058445;28;19923;-82
2023/07/03 12:01:15;;;;;;;;;;;27.20;62.40;;;;;;5058527;28;20439;-83
2023/07/03 12:04:00;;;;;;;;;;;27.20;60.10;;;;;;5054368;28;19916;-80
2023/07/03 12:06:38;;;;;;;;;;;27.30;60.00;;;;;;5074338;28;19916;-81
2023/07/03 12:09:21;;;;;;;;;;;26.90;58.70;;;;;;5061553;28;19974;-83
2023/07/03 12:12:07;;;;;;;;;;;26.70;59.40;;;;;;5057811;28;19974;-82
2023/07/03 12:14:42;;;;;;;;;;;26.00;62.60;;;;;;5052161;28;19916;-83
2023/07/03 12:17:26;;;;;;;;;;;25.30;62.60;;;;;;5052754;28;19920;-82
2023/07/03 12:19:56;;;;;;;;;;;25.30;63.20;;;;;;5061109;28;19916;-82
2023/07/03 12:22:25;;;;;;;;;;;25.10;65.40;;;;;;5059765;28;19937;-82
2023/07/03 12:25:05;;;;;;;;;;;25.20;63.10;;;;;;5041522;28;20857;-78
2023/07/03 12:27:31;;;;;;;;;;;25.50;62.70;;;;;;5040437;28;19966;-80
2023/07/03 12:29:56;;;;;;;;;;;25.80;65.20;;;;;;5059987;28;19931;-81
2023/07/03 12:32:25;;;;;;;;;;;25.80;66.00;;;;;;5062098;28;20283;-81
2023/07/03 12:34:51;;;;;;;;;;;26.10;64.50;;;;;;5061964;28;19923;-81
2023/07/03 12:37:19;;;;;;;;;;;26.00;63.00;;;;;;5060511;28;19920;-80
2023/07/03 12:39:46;;;;;;;;;;;25.70;64.40;;;;;;5071826;28;19955;-81
2023/07/03 12:42:18;;;;;;;;;;;25.30;64.80;;;;;;5044260;28;19938;-81
2023/07/03 12:44:44;;;;;;;;;;;24.90;63.50;;;;;;5058665;28;19912;-81
2023/07/03 12:47:14;;;;;;;;;;;24.70;60.30;;;;;;5058563;28;20238;-81
2023/07/03 12:49:47;;;;;;;;;;;25.10;63.80;;;;;;5058831;28;19920;-82
2023/07/03 12:52:15;;;;;;;;;;;25.50;62.90;;;;;;5060238;28;19913;-81
2023/07/03 12:54:41;;;;;;;;;;;25.90;66.80;;;;;;5061743;28;20391;-80
2023/07/03 12:57:09;;;;;;;;;;;26.10;64.60;;;;;;5076313;28;19917;-81
2023/07/03 12:59:35;;;;;;;;;;;26.20;62.30;;;;;;5061219;28;20284;-81
2023/07/03 13:02:01;;;;;;;;;;;26.30;60.60;;;;;;5062411;28;19945;-78
2023/07/03 13:04:28;;;;;;;;;;;26.00;58.80;;;;;;5061924;28;19912;-83
2023/07/03 13:06:53;;;;;;;;;;;26.00;60.30;;;;;;5053906;28;20378;-79
2023/07/03 13:09:19;;;;;;;;;;;26.20;58.60;;;;;;5066056;28;19919;-81
2023/07/03 13:11:45;;;;;;;;;;;26.50;62.40;;;;;;5074244;28;19912;-82
2023/07/03 13:14:12;;;;;;;;;;;26.10;59.80;;;;;;5058987;28;19920;-79
2023/07/03 13:16:38;;;;;;;;;;;26.50;60.30;;;;;;5057857;28;19921;-80
2023/07/03 13:19:04;;;;;;;;;;;26.20;61.40;;;;;;5053540;28;20038;-80
2023/07/03 13:21:30;;;;;;;;;;;26.30;61.70;;;;;;5038652;28;19982;-82
2023/07/03 13:24:04;;;;;;;;;;;26.10;61.30;;;;;;5066220;28;19920;-80
2023/07/03 13:26:29;;;;;;;;;;;26.20;61.10;;;;;;5067167;28;19912;-81
2023/07/03 13:28:58;;;;;;;;;;;26.40;63.00;;;;;;5063529;28;19912;-81
2023/07/03 13:31:25;;;;;;;;;;;26.60;62.30;;;;;;5065659;28;20023;-80
2023/07/03 13:34:15;;;;;;;;;;;26.50;63.40;;;;;;5065936;28;19916;-79
2023/07/03 13:36:45;;;;;;;;;;;26.10;66.60;;;;;;5064495;28;19916;-81
2023/07/03 13:39:11;;;;;;;;;;;26.00;60.30;;;;;;5063578;28;19950;-80
2023/07/03 13:41:37;;;;;;;;;;;26.10;61.00;;;;;;5065503;28;20379;-81
2023/07/03 13:44:07;;;;;;;;;;;26.50;61.20;;;;;;5044819;28;19917;-83
2023/07/03 13:46:33;;;;;;;;;;;26.80;61.10;;;;;;5065047;28;19970;-82
2023/07/03 13:48:59;;;;;;;;;;;26.80;60.00;;;;;;5059982;28;19916;-82
2023/07/03 13:51:25;;;;;;;;;;;26.80;60.90;;;;;;5066699;28;19939;-82
2023/07/03 13:53:51;;;;;;;;;;;26.70;59.90;;;;;;5065072;28;20029;-81
2023/07/03 13:56:19;;;;;;;;;;;26.50;60.00;;;;;;5064408;28;19928;-80
2023/07/03 13:58:45;;;;;;;;;;;26.60;61.10;;;;;;5044619;28;19912;-83
2023/07/03 14:01:10;;;;;;;;;;;26.80;62.00;;;;;;5065351;28;19912;-81
2023/07/03 14:03:36;;;;;;;;;;;26.60;62.60;;;;;;5065170;28;19958;-82
2023/07/03 14:06:02;;;;;;;;;;;26.90;61.90;;;;;;5079228;28;20283;-81
2023/07/03 14:08:28;;;;;;;;;;;26.80;62.30;;;;;;5064320;28;19938;-81
2023/07/03 14:10:54;;;;;;;;;;;27.00;60.90;;;;;;5048842;28;19916;-81
2023/07/03 14:13:20;;;;;;;;;;;26.90;61.80;;;;;;5064742;28;19912;-82
2023/07/03 14:15:45;;;;;;;;;;;27.00;59.40;;;;;;5057763;28;20406;-81
2023/07/03 14:18:11;;;;;;;;;;;26.90;60.20;;;;;;5057629;28;19920;-81